createdAt,value
2019-01-10T00:00:23.056Z,1008.74
2019-01-10T00:01:23.046Z,1008.78
2019-01-10T00:02:23.000Z,1008.77
2019-01-10T00:03:22.982Z,1008.76
2019-01-10T00:04:22.967Z,1008.74
2019-01-10T00:05:22.940Z,1008.72
2019-01-10T00:06:22.991Z,1008.72
2019-01-10T00:07:22.903Z,1008.75
2019-01-10T00:08:22.875Z,1008.77
2019-01-10T00:09:22.865Z,1008.83
2019-01-10T00:10:22.847Z,1008.82
2019-01-10T00:11:22.823Z,1008.79
2019-01-10T00:12:22.835Z,1008.77
2019-01-10T00:13:22.773Z,1008.70
2019-01-10T00:14:22.754Z,1008.70
2019-01-10T00:15:22.737Z,1008.69
2019-01-10T00:16:22.711Z,1008.70
2019-01-10T00:17:22.771Z,1008.69
2019-01-10T00:18:22.660Z,1008.60
2019-01-10T00:19:22.660Z,1008.64
2019-01-10T00:20:22.626Z,1008.67
2019-01-10T00:21:22.611Z,1008.64
2019-01-10T00:22:22.589Z,1008.62
2019-01-10T00:23:22.563Z,1008.69
2019-01-10T00:24:22.548Z,1008.67
2019-01-10T00:25:22.524Z,1008.69
2019-01-10T00:26:22.507Z,1008.70
2019-01-10T00:27:22.470Z,1008.75
2019-01-10T00:28:22.480Z,1008.75
2019-01-10T00:29:22.436Z,1008.70
2019-01-10T00:30:22.409Z,1008.69
2019-01-10T00:31:22.393Z,1008.65
2019-01-10T00:32:22.368Z,1008.73
2019-01-10T00:33:22.388Z,1008.67
2019-01-10T00:34:22.328Z,1008.67
2019-01-10T00:35:22.357Z,1008.75
2019-01-10T00:36:22.293Z,1008.74
2019-01-10T00:37:22.264Z,1008.74
2019-01-10T00:38:22.247Z,1008.72
2019-01-10T00:39:22.216Z,1008.74
2019-01-10T00:40:22.195Z,1008.75
2019-01-10T00:41:22.191Z,1008.70
2019-01-10T00:42:22.165Z,1008.69
2019-01-10T00:43:22.151Z,1008.66
2019-01-10T00:44:22.126Z,1008.64
2019-01-10T00:45:22.104Z,1008.66
2019-01-10T00:46:22.073Z,1008.66
2019-01-10T00:47:22.083Z,1008.71
2019-01-10T00:48:22.031Z,1008.69
2019-01-10T00:49:22.041Z,1008.68
2019-01-10T00:50:21.997Z,1008.69
2019-01-10T00:51:21.978Z,1008.71
2019-01-10T00:52:21.944Z,1008.74
2019-01-10T00:53:21.968Z,1008.78
2019-01-10T00:54:21.929Z,1008.78
2019-01-10T00:55:21.872Z,1008.76
2019-01-10T00:56:21.856Z,1008.78
2019-01-10T00:57:21.828Z,1008.76
2019-01-10T00:58:21.826Z,1008.88
2019-01-10T00:59:21.825Z,1008.87
2019-01-10T01:00:21.767Z,1008.89
2019-01-10T01:01:21.762Z,1008.89
2019-01-10T01:02:21.726Z,1008.89
2019-01-10T01:03:21.719Z,1008.84
2019-01-10T01:04:21.685Z,1008.84
2019-01-10T01:05:21.674Z,1008.91
2019-01-10T01:06:21.681Z,1008.88
2019-01-10T01:07:21.628Z,1008.90
2019-01-10T01:08:21.610Z,1008.89
2019-01-10T01:09:21.580Z,1008.93
2019-01-10T01:10:21.572Z,1008.95
2019-01-10T01:11:21.597Z,1008.96
2019-01-10T01:12:21.521Z,1008.98
2019-01-10T01:13:21.490Z,1008.97
2019-01-10T01:14:21.490Z,1009.00
2019-01-10T01:15:21.462Z,1009.08
2019-01-10T01:16:21.434Z,1009.08
2019-01-10T01:17:21.437Z,1009.13
2019-01-10T01:18:21.385Z,1009.12
2019-01-10T01:19:21.394Z,1009.15
2019-01-10T01:20:21.352Z,1009.21
2019-01-10T01:21:21.324Z,1009.20
2019-01-10T01:22:21.339Z,1009.17
2019-01-10T01:23:21.284Z,1009.25
2019-01-10T01:24:21.262Z,1009.24
2019-01-10T01:25:21.243Z,1009.26
2019-01-10T01:26:21.223Z,1009.32
2019-01-10T01:27:21.204Z,1009.33
2019-01-10T01:28:21.215Z,1009.34
2019-01-10T01:29:21.151Z,1009.33
2019-01-10T01:30:21.133Z,1009.38
2019-01-10T01:31:21.104Z,1009.33
2019-01-10T01:32:21.095Z,1009.36
2019-01-10T01:33:21.116Z,1009.39
2019-01-10T01:34:21.081Z,1009.44
2019-01-10T01:35:21.731Z,1009.46
2019-01-10T01:36:21.015Z,1009.47
2019-01-10T01:37:20.981Z,1009.44
2019-01-10T01:38:20.957Z,1009.47
2019-01-10T01:39:21.090Z,1009.50
2019-01-10T01:40:20.920Z,1009.54
2019-01-10T01:41:20.892Z,1009.53
2019-01-10T01:42:20.872Z,1009.52
2019-01-10T01:43:20.863Z,1009.51
2019-01-10T01:44:20.840Z,1009.52
2019-01-10T01:45:20.858Z,1009.52
2019-01-10T01:46:20.788Z,1009.51
2019-01-10T01:47:20.776Z,1009.53
2019-01-10T01:48:20.757Z,1009.58
2019-01-10T01:49:20.737Z,1009.52
2019-01-10T01:50:20.715Z,1009.53
2019-01-10T01:51:20.709Z,1009.54
2019-01-10T01:52:20.673Z,1009.56
2019-01-10T01:53:20.655Z,1009.50
2019-01-10T01:54:20.618Z,1009.54
2019-01-10T01:55:20.598Z,1009.51
2019-01-10T01:56:20.611Z,1009.54
2019-01-10T01:57:20.558Z,1009.62
2019-01-10T01:58:20.543Z,1009.63
2019-01-10T01:59:20.509Z,1009.64
2019-01-10T02:00:20.506Z,1009.64
2019-01-10T02:01:20.502Z,1009.62
2019-01-10T02:02:20.453Z,1009.64
2019-01-10T02:03:20.425Z,1009.67
2019-01-10T02:04:20.417Z,1009.70
2019-01-10T02:05:20.382Z,1009.72
2019-01-10T02:06:20.404Z,1009.76
2019-01-10T02:07:20.346Z,1009.79
2019-01-10T02:08:20.314Z,1009.77
2019-01-10T02:09:20.339Z,1009.80
2019-01-10T02:10:20.271Z,1009.80
2019-01-10T02:11:20.253Z,1009.80
2019-01-10T02:12:20.243Z,1009.77
2019-01-10T02:13:20.220Z,1009.81
2019-01-10T02:14:20.216Z,1009.83
2019-01-10T02:15:20.177Z,1009.83
2019-01-10T02:16:20.150Z,1009.84
2019-01-10T02:17:20.176Z,1009.89
2019-01-10T02:18:20.103Z,1009.94
2019-01-10T02:19:20.090Z,1009.96
2019-01-10T02:20:20.068Z,1009.97
2019-01-10T02:21:20.045Z,1009.98
2019-01-10T02:22:20.027Z,1010.00
2019-01-10T02:23:20.009Z,1010.00
2019-01-10T02:24:19.975Z,1009.99
2019-01-10T02:25:19.968Z,1010.04
2019-01-10T02:26:19.930Z,1010.01
2019-01-10T02:27:19.948Z,1010.01
2019-01-10T02:28:19.883Z,1010.02
2019-01-10T02:29:19.868Z,1010.07
2019-01-10T02:30:19.843Z,1010.10
2019-01-10T02:31:19.823Z,1010.09
2019-01-10T02:32:19.831Z,1010.07
2019-01-10T02:33:19.784Z,1010.08
2019-01-10T02:34:19.766Z,1010.03
2019-01-10T02:35:19.752Z,1010.03
2019-01-10T02:36:19.724Z,1010.01
2019-01-10T02:37:19.693Z,1010.01
2019-01-10T02:38:19.700Z,1010.05
2019-01-10T02:39:19.649Z,1010.07
2019-01-10T02:40:19.723Z,1010.09
2019-01-10T02:41:19.671Z,1010.08
2019-01-10T02:42:19.599Z,1010.09
2019-01-10T02:43:26.370Z,1010.14
2019-01-10T02:44:19.560Z,1010.12
2019-01-10T02:45:19.545Z,1010.14
2019-01-10T02:46:19.509Z,1010.14
2019-01-10T02:47:19.521Z,1010.16
2019-01-10T02:48:19.818Z,1010.16
2019-01-10T02:49:19.448Z,1010.15
2019-01-10T02:50:19.413Z,1010.20
2019-01-10T02:51:19.420Z,1010.10
2019-01-10T02:52:19.406Z,1010.11
2019-01-10T02:53:19.363Z,1010.14
2019-01-10T02:54:19.334Z,1010.17
2019-01-10T02:55:19.312Z,1010.14
2019-01-10T02:56:19.319Z,1010.18
2019-01-10T02:57:19.310Z,1010.20
2019-01-10T02:58:19.245Z,1010.16
2019-01-10T02:59:19.234Z,1010.20
2019-01-10T03:00:19.279Z,1010.13
2019-01-10T03:01:19.204Z,1010.14
2019-01-10T03:02:19.203Z,1010.14
2019-01-10T03:03:19.176Z,1010.18
2019-01-10T03:04:19.139Z,1010.17
2019-01-10T03:05:19.097Z,1010.18
2019-01-10T03:06:19.101Z,1010.15
2019-01-10T03:07:19.071Z,1010.20
2019-01-10T03:08:19.053Z,1010.19
2019-01-10T03:09:19.145Z,1010.21
2019-01-10T03:10:18.996Z,1010.20
2019-01-10T03:11:18.975Z,1010.16
2019-01-10T03:12:18.957Z,1010.11
2019-01-10T03:13:18.935Z,1010.13
2019-01-10T03:14:18.903Z,1010.16
2019-01-10T03:15:18.946Z,1010.12
2019-01-10T03:16:18.881Z,1010.15
2019-01-10T03:17:18.844Z,1010.12
2019-01-10T03:18:18.823Z,1010.13
2019-01-10T03:19:18.810Z,1010.14
2019-01-10T03:20:18.790Z,1010.10
2019-01-10T03:21:18.796Z,1010.10
2019-01-10T03:22:18.745Z,1010.12
2019-01-10T03:23:18.710Z,1010.15
2019-01-10T03:24:18.704Z,1010.13
2019-01-10T03:25:18.717Z,1010.10
2019-01-10T03:26:18.662Z,1010.10
2019-01-10T03:27:18.625Z,1010.14
2019-01-10T03:28:18.620Z,1010.11
2019-01-10T03:29:18.606Z,1010.14
2019-01-10T03:30:18.602Z,1010.14
2019-01-10T03:31:18.559Z,1010.15
2019-01-10T03:32:18.533Z,1010.19
2019-01-10T03:33:18.512Z,1010.18
2019-01-10T03:34:18.486Z,1010.19
2019-01-10T03:35:18.458Z,1010.16
2019-01-10T03:36:18.478Z,1010.16
2019-01-10T03:37:18.425Z,1010.18
2019-01-10T03:38:18.403Z,1010.13
2019-01-10T03:39:18.383Z,1010.17
2019-01-10T03:40:18.360Z,1010.15
2019-01-10T03:41:18.408Z,1010.17
2019-01-10T03:42:18.304Z,1010.11
2019-01-10T03:43:18.290Z,1010.11
2019-01-10T03:44:18.266Z,1010.11
2019-01-10T03:45:18.248Z,1010.09
2019-01-10T03:46:18.222Z,1010.14
2019-01-10T03:47:18.240Z,1010.17
2019-01-10T03:48:18.183Z,1010.13
2019-01-10T03:49:18.310Z,1010.17
2019-01-10T03:50:18.142Z,1010.21
2019-01-10T03:51:18.116Z,1010.25
2019-01-10T03:52:18.105Z,1010.24
2019-01-10T03:53:18.076Z,1010.27
2019-01-10T03:54:18.054Z,1010.30
2019-01-10T03:55:18.064Z,1010.28
2019-01-10T03:56:18.048Z,1010.24
2019-01-10T03:57:18.006Z,1010.21
2019-01-10T03:58:17.975Z,1010.22
2019-01-10T03:59:17.958Z,1010.22
2019-01-10T04:00:18.042Z,1010.24
2019-01-10T04:01:17.917Z,1010.31
2019-01-10T04:02:17.920Z,1010.28
2019-01-10T04:03:17.875Z,1010.28
2019-01-10T04:04:17.849Z,1010.29
2019-01-10T04:05:17.837Z,1010.35
2019-01-10T04:06:17.832Z,1010.35
2019-01-10T04:07:17.792Z,1010.38
2019-01-10T04:08:17.763Z,1010.36
2019-01-10T04:09:17.736Z,1010.36
2019-01-10T04:10:17.708Z,1010.31
2019-01-10T04:11:17.698Z,1010.31
2019-01-10T04:12:17.710Z,1010.37
2019-01-10T04:13:17.656Z,1010.40
2019-01-10T04:14:17.631Z,1010.37
2019-01-10T04:15:17.615Z,1010.34
2019-01-10T04:16:17.596Z,1010.35
2019-01-10T04:17:17.601Z,1010.34
2019-01-10T04:18:17.542Z,1010.32
2019-01-10T04:19:17.561Z,1010.30
2019-01-10T04:20:17.512Z,1010.33
2019-01-10T04:21:17.767Z,1010.37
2019-01-10T04:22:17.468Z,1010.33
2019-01-10T04:23:17.443Z,1010.36
2019-01-10T04:24:17.452Z,1010.35
2019-01-10T04:25:17.391Z,1010.35
2019-01-10T04:26:17.373Z,1010.39
2019-01-10T04:27:17.367Z,1010.37
2019-01-10T04:28:17.352Z,1010.33
2019-01-10T04:29:17.357Z,1010.34
2019-01-10T04:30:17.302Z,1010.32
2019-01-10T04:31:17.263Z,1010.30
2019-01-10T04:32:17.254Z,1010.35
2019-01-10T04:33:17.222Z,1010.38
2019-01-10T04:34:17.217Z,1010.33
2019-01-10T04:35:17.328Z,1010.34
2019-01-10T04:36:17.162Z,1010.36
2019-01-10T04:37:17.146Z,1010.36
2019-01-10T04:38:17.132Z,1010.34
2019-01-10T04:39:17.106Z,1010.28
2019-01-10T04:40:17.089Z,1010.32
2019-01-10T04:41:17.070Z,1010.31
2019-01-10T04:42:17.063Z,1010.35
2019-01-10T04:43:17.009Z,1010.36
2019-01-10T04:44:16.988Z,1010.36
2019-01-10T04:45:16.979Z,1010.38
2019-01-10T04:46:16.980Z,1010.35
2019-01-10T04:47:16.965Z,1010.37
2019-01-10T04:48:16.921Z,1010.37
2019-01-10T04:49:16.896Z,1010.36
2019-01-10T04:50:16.869Z,1010.35
2019-01-10T04:51:16.840Z,1010.37
2019-01-10T04:52:16.850Z,1010.35
2019-01-10T04:53:16.803Z,1010.32
2019-01-10T04:54:16.776Z,1010.33
2019-01-10T04:55:16.772Z,1010.29
2019-01-10T04:56:16.835Z,1010.30
2019-01-10T04:57:16.760Z,1010.31
2019-01-10T04:58:16.729Z,1010.36
2019-01-10T04:59:16.687Z,1010.37
2019-01-10T05:00:16.660Z,1010.36
2019-01-10T05:01:16.640Z,1010.35
2019-01-10T05:02:18.498Z,1010.37
2019-01-10T05:03:16.597Z,1010.37
2019-01-10T05:04:16.571Z,1010.31
2019-01-10T05:05:16.554Z,1010.40
2019-01-10T05:06:16.523Z,1010.39
2019-01-10T05:07:16.516Z,1010.42
2019-01-10T05:08:16.487Z,1010.42
2019-01-10T05:09:16.455Z,1010.40
2019-01-10T05:10:16.447Z,1010.41
2019-01-10T05:11:16.425Z,1010.38
2019-01-10T05:12:16.401Z,1010.36
2019-01-10T05:13:16.409Z,1010.33
2019-01-10T05:14:17.037Z,1010.37
2019-01-10T05:15:16.328Z,1010.34
2019-01-10T05:16:16.317Z,1010.31
2019-01-10T05:17:16.295Z,1010.31
2019-01-10T05:18:16.280Z,1010.28
2019-01-10T05:19:16.247Z,1010.28
2019-01-10T05:20:16.227Z,1010.34
2019-01-10T05:21:16.239Z,1010.29
2019-01-10T05:22:16.183Z,1010.31
2019-01-10T05:23:16.172Z,1010.28
2019-01-10T05:24:16.145Z,1010.34
2019-01-10T05:25:16.154Z,1010.30
2019-01-10T05:26:16.102Z,1010.37
2019-01-10T05:27:16.077Z,1010.34
2019-01-10T05:28:16.060Z,1010.32
2019-01-10T05:29:16.030Z,1010.36
2019-01-10T05:30:16.019Z,1010.35
2019-01-10T05:31:16.003Z,1010.39
2019-01-10T05:32:15.971Z,1010.37
2019-01-10T05:33:15.951Z,1010.39
2019-01-10T05:34:15.939Z,1010.43
2019-01-10T05:35:15.941Z,1010.42
2019-01-10T05:36:15.893Z,1010.43
2019-01-10T05:37:15.864Z,1010.40
2019-01-10T05:38:15.926Z,1010.36
2019-01-10T05:39:15.830Z,1010.41
2019-01-10T05:40:15.809Z,1010.42
2019-01-10T05:41:15.772Z,1010.40
2019-01-10T05:42:15.754Z,1010.40
2019-01-10T05:43:15.742Z,1010.40
2019-01-10T05:44:15.757Z,1010.44
2019-01-10T05:45:15.731Z,1010.46
2019-01-10T05:46:15.672Z,1010.47
2019-01-10T05:47:15.649Z,1010.50
2019-01-10T05:48:15.644Z,1010.50
2019-01-10T05:49:15.608Z,1010.49
2019-01-10T05:50:17.611Z,1010.48
2019-01-10T05:51:15.567Z,1010.53
2019-01-10T05:52:15.563Z,1010.51
2019-01-10T05:53:15.543Z,1010.51
2019-01-10T05:54:15.509Z,1010.53
2019-01-10T05:55:15.534Z,1010.53
2019-01-10T05:56:15.880Z,1010.52
2019-01-10T05:57:15.448Z,1010.58
2019-01-10T05:58:15.442Z,1010.57
2019-01-10T05:59:15.457Z,1010.58
2019-01-10T06:00:15.394Z,1010.61
2019-01-10T06:01:15.379Z,1010.63
2019-01-10T06:02:15.340Z,1010.67
2019-01-10T06:03:15.316Z,1010.67
2019-01-10T06:04:15.293Z,1010.75
2019-01-10T06:05:15.277Z,1010.71
2019-01-10T06:06:15.274Z,1010.71
2019-01-10T06:07:15.253Z,1010.71
2019-01-10T06:08:15.205Z,1010.71
2019-01-10T06:09:15.202Z,1010.72
2019-01-10T06:10:15.171Z,1010.74
2019-01-10T06:11:15.142Z,1010.79
2019-01-10T06:12:15.176Z,1010.73
2019-01-10T06:13:15.104Z,1010.77
2019-01-10T06:14:15.078Z,1010.75
2019-01-10T06:15:15.053Z,1010.74
2019-01-10T06:16:15.038Z,1010.77
2019-01-10T06:17:15.057Z,1010.82
2019-01-10T06:18:14.992Z,1010.84
2019-01-10T06:19:14.966Z,1010.94
2019-01-10T06:20:14.950Z,1010.92
2019-01-10T06:21:14.970Z,1010.96
2019-01-10T06:22:14.967Z,1010.91
2019-01-10T06:23:14.885Z,1010.91
2019-01-10T06:24:14.865Z,1010.88
2019-01-10T06:25:14.855Z,1010.88
2019-01-10T06:26:14.820Z,1010.88
2019-01-10T06:27:14.807Z,1010.90
2019-01-10T06:28:14.795Z,1010.92
2019-01-10T06:29:14.762Z,1010.93
2019-01-10T06:30:14.743Z,1010.93
2019-01-10T06:31:14.717Z,1010.97
2019-01-10T06:32:14.691Z,1010.97
2019-01-10T06:33:14.705Z,1010.97
2019-01-10T06:34:14.697Z,1010.96
2019-01-10T06:35:14.639Z,1010.98
2019-01-10T06:36:14.623Z,1010.98
2019-01-10T06:37:14.602Z,1011.01
2019-01-10T06:38:14.584Z,1010.98
2019-01-10T06:39:14.693Z,1010.96
2019-01-10T06:40:14.531Z,1010.99
2019-01-10T06:41:14.511Z,1011.02
2019-01-10T06:42:14.488Z,1011.03
2019-01-10T06:43:14.474Z,1011.03
2019-01-10T06:44:14.454Z,1011.03
2019-01-10T06:45:14.454Z,1011.04
2019-01-10T06:46:14.400Z,1011.01
2019-01-10T06:47:14.386Z,1011.00
2019-01-10T06:48:14.372Z,1011.00
2019-01-10T06:49:14.375Z,1011.07
2019-01-10T06:50:14.351Z,1011.05
2019-01-10T06:51:14.301Z,1011.02
2019-01-10T06:52:14.273Z,1011.03
2019-01-10T06:53:14.262Z,1011.02
2019-01-10T06:54:14.222Z,1011.02
2019-01-10T06:55:14.455Z,1010.99
2019-01-10T06:56:14.195Z,1011.01
2019-01-10T06:57:14.165Z,1010.98
2019-01-10T06:58:14.139Z,1011.01
2019-01-10T06:59:14.126Z,1011.01
2019-01-10T07:00:14.248Z,1011.04
2019-01-10T07:01:14.077Z,1011.00
2019-01-10T07:02:14.064Z,1011.05
2019-01-10T07:03:14.033Z,1011.05
2019-01-10T07:04:14.022Z,1011.09
2019-01-10T07:05:14.012Z,1011.11
2019-01-10T07:06:13.988Z,1011.14
2019-01-10T07:07:13.962Z,1011.15
2019-01-10T07:08:13.935Z,1011.17
2019-01-10T07:09:13.914Z,1011.19
2019-01-10T07:10:13.906Z,1011.19
2019-01-10T07:11:14.017Z,1011.19
2019-01-10T07:12:13.843Z,1011.21
2019-01-10T07:13:13.822Z,1011.22
2019-01-10T07:14:13.801Z,1011.22
2019-01-10T07:15:13.786Z,1011.29
2019-01-10T07:16:13.772Z,1011.26
2019-01-10T07:17:15.854Z,1011.27
2019-01-10T07:18:13.726Z,1011.25
2019-01-10T07:19:13.698Z,1011.21
2019-01-10T07:20:13.671Z,1011.24
2019-01-10T07:21:13.702Z,1011.27
2019-01-10T07:22:13.641Z,1011.27
2019-01-10T07:23:13.611Z,1011.27
2019-01-10T07:24:13.638Z,1011.28
2019-01-10T07:25:13.694Z,1011.25
2019-01-10T07:26:13.550Z,1011.27
2019-01-10T07:27:13.535Z,1011.25
2019-01-10T07:28:13.514Z,1011.32
2019-01-10T07:29:13.494Z,1011.27
2019-01-10T07:30:13.618Z,1011.34
2019-01-10T07:31:13.447Z,1011.32
2019-01-10T07:32:13.416Z,1011.29
2019-01-10T07:33:13.396Z,1011.30
2019-01-10T07:34:13.384Z,1011.32
2019-01-10T07:35:13.371Z,1011.34
2019-01-10T07:36:13.344Z,1011.34
2019-01-10T07:37:13.314Z,1011.30
2019-01-10T07:38:13.289Z,1011.37
2019-01-10T07:39:13.279Z,1011.42
2019-01-10T07:40:13.257Z,1011.38
2019-01-10T07:41:13.263Z,1011.47
2019-01-10T07:42:13.214Z,1011.50
2019-01-10T07:43:13.191Z,1011.53
2019-01-10T07:44:13.178Z,1011.54
2019-01-10T07:45:13.293Z,1011.57
2019-01-10T07:46:13.120Z,1011.54
2019-01-10T07:47:13.120Z,1011.57
2019-01-10T07:48:13.088Z,1011.56
2019-01-10T07:49:13.061Z,1011.50
2019-01-10T07:50:13.133Z,1011.54
2019-01-10T07:51:13.019Z,1011.54
2019-01-10T07:52:12.991Z,1011.52
2019-01-10T07:53:12.972Z,1011.55
2019-01-10T07:54:12.958Z,1011.56
2019-01-10T07:55:12.999Z,1011.56
2019-01-10T07:56:12.949Z,1011.57
2019-01-10T07:57:12.930Z,1011.59
2019-01-10T07:58:12.877Z,1011.60
2019-01-10T07:59:12.856Z,1011.59
2019-01-10T08:00:12.822Z,1011.56
2019-01-10T08:01:12.812Z,1011.59
2019-01-10T08:02:12.822Z,1011.58
2019-01-10T08:03:12.760Z,1011.61
2019-01-10T08:04:12.740Z,1011.63
2019-01-10T08:05:12.730Z,1011.66
2019-01-10T08:06:12.717Z,1011.64
2019-01-10T08:07:12.752Z,1011.66
2019-01-10T08:08:14.317Z,1011.67
2019-01-10T08:09:12.644Z,1011.70
2019-01-10T08:10:12.626Z,1011.67
2019-01-10T08:11:12.598Z,1011.69
2019-01-10T08:12:12.575Z,1011.67
2019-01-10T08:13:12.557Z,1011.68
2019-01-10T08:14:12.528Z,1011.65
2019-01-10T08:15:12.514Z,1011.68
2019-01-10T08:16:12.495Z,1011.68
2019-01-10T08:17:16.187Z,1011.70
2019-01-10T08:18:12.489Z,1011.73
2019-01-10T08:19:12.430Z,1011.71
2019-01-10T08:20:12.477Z,1011.72
2019-01-10T08:21:12.388Z,1011.72
2019-01-10T08:22:12.380Z,1011.75
2019-01-10T08:23:12.351Z,1011.74
2019-01-10T08:24:12.361Z,1011.70
2019-01-10T08:25:12.313Z,1011.76
2019-01-10T08:26:12.282Z,1011.75
2019-01-10T08:27:12.262Z,1011.81
2019-01-10T08:28:12.235Z,1011.82
2019-01-10T08:29:12.283Z,1011.82
2019-01-10T08:30:12.197Z,1011.85
2019-01-10T08:31:12.195Z,1011.85
2019-01-10T08:32:12.164Z,1011.81
2019-01-10T08:33:12.131Z,1011.83
2019-01-10T08:34:12.114Z,1011.87
2019-01-10T08:35:12.251Z,1011.88
2019-01-10T08:36:12.075Z,1011.91
2019-01-10T08:37:12.286Z,1011.91
2019-01-10T08:38:12.023Z,1011.89
2019-01-10T08:39:12.007Z,1011.90
2019-01-10T08:40:11.992Z,1011.88
2019-01-10T08:41:13.872Z,1011.96
2019-01-10T08:42:11.963Z,1011.97
2019-01-10T08:43:11.930Z,1011.98
2019-01-10T08:44:11.900Z,1012.01
2019-01-10T08:45:21.149Z,1011.99
2019-01-10T08:46:11.914Z,1012.00
2019-01-10T08:47:11.833Z,1011.98
2019-01-10T08:48:11.831Z,1011.96
2019-01-10T08:49:11.796Z,1011.94
2019-01-10T08:50:11.785Z,1011.93
2019-01-10T08:51:11.894Z,1011.96
2019-01-10T08:52:11.778Z,1011.95
2019-01-10T08:53:11.721Z,1012.01
2019-01-10T08:54:11.691Z,1011.99
2019-01-10T08:55:11.679Z,1011.97
2019-01-10T08:56:11.648Z,1012.01
2019-01-10T08:57:11.659Z,1011.99
2019-01-10T08:58:11.620Z,1011.98
2019-01-10T08:59:11.591Z,1011.95
2019-01-10T09:00:11.810Z,1011.93
2019-01-10T09:01:11.844Z,1011.97
2019-01-10T09:02:12.005Z,1011.98
2019-01-10T09:03:11.805Z,1012.02
2019-01-10T09:04:11.738Z,1012.04
2019-01-10T09:05:12.333Z,1012.04
2019-01-10T09:06:11.723Z,1012.03
2019-01-10T09:07:11.717Z,1012.05
2019-01-10T09:08:11.862Z,1012.03
2019-01-10T09:09:11.861Z,1012.04
2019-01-10T09:10:11.657Z,1012.02
2019-01-10T09:11:11.330Z,1012.04
2019-01-10T09:12:11.489Z,1012.05
2019-01-10T09:13:11.303Z,1012.06
2019-01-10T09:14:11.326Z,1012.09
2019-01-10T09:15:11.249Z,1012.11
2019-01-10T09:16:11.226Z,1012.14
2019-01-10T09:17:11.242Z,1012.12
2019-01-10T09:18:11.287Z,1012.13
2019-01-10T09:19:11.185Z,1012.15
2019-01-10T09:20:11.172Z,1012.15
2019-01-10T09:21:11.129Z,1012.14
2019-01-10T09:22:11.110Z,1012.09
2019-01-10T09:23:11.097Z,1012.11
2019-01-10T09:24:11.074Z,1012.11
2019-01-10T09:25:11.086Z,1012.11
2019-01-10T09:26:11.919Z,1012.11
2019-01-10T09:27:11.009Z,1012.15
2019-01-10T09:28:11.283Z,1012.10
2019-01-10T09:29:11.255Z,1012.14
2019-01-10T09:30:11.229Z,1012.15
2019-01-10T09:31:11.209Z,1012.10
2019-01-10T09:32:11.149Z,1012.12
2019-01-10T09:33:10.882Z,1012.15
2019-01-10T09:34:11.145Z,1012.20
2019-01-10T09:35:11.134Z,1012.18
2019-01-10T09:36:11.109Z,1012.17
2019-01-10T09:37:11.262Z,1012.18
2019-01-10T09:38:11.064Z,1012.15
2019-01-10T09:39:10.765Z,1012.16
2019-01-10T09:40:11.386Z,1012.16
2019-01-10T09:41:12.014Z,1012.16
2019-01-10T09:42:11.458Z,1012.17
2019-01-10T09:43:11.401Z,1012.19
2019-01-10T09:44:10.748Z,1012.21
2019-01-10T09:45:10.777Z,1012.25
2019-01-10T09:46:10.854Z,1012.25
2019-01-10T09:47:10.891Z,1012.23
2019-01-10T09:48:10.572Z,1012.24
2019-01-10T09:49:11.822Z,1012.21
2019-01-10T09:50:11.173Z,1012.26
2019-01-10T09:51:11.198Z,1012.26
2019-01-10T09:52:11.186Z,1012.28
2019-01-10T09:53:11.201Z,1012.31
2019-01-10T09:54:11.397Z,1012.30
2019-01-10T09:55:11.195Z,1012.28
2019-01-10T09:56:11.115Z,1012.28
2019-01-10T09:57:10.878Z,1012.31
2019-01-10T09:58:11.155Z,1012.32
2019-01-10T09:59:11.163Z,1012.27
2019-01-10T10:00:11.154Z,1012.32
2019-01-10T10:01:21.023Z,1012.33
2019-01-10T10:02:10.280Z,1012.36
2019-01-10T10:03:10.256Z,1012.37
2019-01-10T10:04:10.255Z,1012.31
2019-01-10T10:05:10.222Z,1012.36
2019-01-10T10:06:10.721Z,1012.35
2019-01-10T10:07:10.967Z,1012.38
2019-01-10T10:08:10.821Z,1012.42
2019-01-10T10:09:10.850Z,1012.36
2019-01-10T10:10:10.899Z,1012.34
2019-01-10T10:11:10.983Z,1012.38
2019-01-10T10:12:10.688Z,1012.41
2019-01-10T10:13:10.768Z,1012.39
2019-01-10T10:14:10.748Z,1012.38
2019-01-10T10:15:10.728Z,1012.41
2019-01-10T10:16:11.090Z,1012.40
2019-01-10T10:17:10.620Z,1012.46
2019-01-10T10:18:10.794Z,1012.46
2019-01-10T10:19:10.684Z,1012.46
2019-01-10T10:20:10.455Z,1012.45
2019-01-10T10:21:10.574Z,1012.44
2019-01-10T10:22:10.819Z,1012.47
2019-01-10T10:23:10.511Z,1012.44
2019-01-10T10:24:10.488Z,1012.44
2019-01-10T10:25:10.609Z,1012.45
2019-01-10T10:26:10.460Z,1012.47
2019-01-10T10:27:10.497Z,1012.48
2019-01-10T10:28:10.896Z,1012.46
2019-01-10T10:29:10.382Z,1012.43
2019-01-10T10:30:10.375Z,1012.47
2019-01-10T10:31:10.394Z,1012.47
2019-01-10T10:32:10.378Z,1012.45
2019-01-10T10:33:10.716Z,1012.47
2019-01-10T10:34:10.224Z,1012.45
2019-01-10T10:35:10.157Z,1012.44
2019-01-10T10:36:10.260Z,1012.45
2019-01-10T10:37:10.272Z,1012.48
2019-01-10T10:38:10.552Z,1012.48
2019-01-10T10:39:10.346Z,1012.51
2019-01-10T10:40:10.216Z,1012.48
2019-01-10T10:41:10.594Z,1012.46
2019-01-10T10:42:10.239Z,1012.48
2019-01-10T10:43:10.124Z,1012.47
2019-01-10T10:44:10.055Z,1012.50
2019-01-10T10:45:09.956Z,1012.50
2019-01-10T10:46:10.039Z,1012.51
2019-01-10T10:47:10.093Z,1012.52
2019-01-10T10:48:10.046Z,1012.50
2019-01-10T10:49:10.504Z,1012.48
2019-01-10T10:50:09.918Z,1012.46
2019-01-10T10:51:09.990Z,1012.49
2019-01-10T10:52:09.979Z,1012.50
2019-01-10T10:53:09.806Z,1012.50
2019-01-10T10:54:09.914Z,1012.48
2019-01-10T10:55:10.050Z,1012.53
2019-01-10T10:56:09.877Z,1012.53
2019-01-10T10:57:09.963Z,1012.54
2019-01-10T10:58:09.895Z,1012.55
2019-01-10T10:59:09.790Z,1012.56
2019-01-10T11:00:09.814Z,1012.52
2019-01-10T11:01:10.321Z,1012.54
2019-01-10T11:02:09.772Z,1012.55
2019-01-10T11:03:09.550Z,1012.56
2019-01-10T11:04:09.759Z,1012.52
2019-01-10T11:05:10.132Z,1012.58
2019-01-10T11:06:09.526Z,1012.57
2019-01-10T11:07:09.833Z,1012.58
2019-01-10T11:08:09.646Z,1012.54
2019-01-10T11:09:09.733Z,1012.49
2019-01-10T11:10:09.745Z,1012.54
2019-01-10T11:11:10.430Z,1012.50
2019-01-10T11:12:09.555Z,1012.45
2019-01-10T11:13:09.854Z,1012.42
2019-01-10T11:14:09.386Z,1012.42
2019-01-10T11:15:09.540Z,1012.40
2019-01-10T11:16:10.681Z,1012.40
2019-01-10T11:17:09.647Z,1012.36
2019-01-10T11:18:09.441Z,1012.34
2019-01-10T11:19:09.267Z,1012.36
2019-01-10T11:20:09.915Z,1012.32
2019-01-10T11:21:09.063Z,1012.29
2019-01-10T11:22:09.412Z,1012.30
2019-01-10T11:23:10.832Z,1012.26
2019-01-10T11:24:09.385Z,1012.27
2019-01-10T11:25:09.459Z,1012.27
2019-01-10T11:26:09.661Z,1012.30
2019-01-10T11:27:09.306Z,1012.24
2019-01-10T11:28:09.163Z,1012.25
2019-01-10T11:29:09.254Z,1012.23
2019-01-10T11:30:09.207Z,1012.26
2019-01-10T11:31:08.803Z,1012.31
2019-01-10T11:32:13.289Z,1012.35
2019-01-10T11:33:09.179Z,1012.34
2019-01-10T11:34:09.653Z,1012.39
2019-01-10T11:35:09.175Z,1012.34
2019-01-10T11:36:08.845Z,1012.36
2019-01-10T11:37:09.198Z,1012.35
2019-01-10T11:38:09.100Z,1012.36
2019-01-10T11:39:09.142Z,1012.36
2019-01-10T11:40:09.059Z,1012.32
2019-01-10T11:41:08.942Z,1012.37
2019-01-10T11:42:08.960Z,1012.33
2019-01-10T11:43:09.337Z,1012.36
2019-01-10T11:44:08.783Z,1012.39
2019-01-10T11:45:08.960Z,1012.37
2019-01-10T11:46:08.940Z,1012.39
2019-01-10T11:47:08.943Z,1012.36
2019-01-10T11:48:08.752Z,1012.37
2019-01-10T11:49:08.982Z,1012.31
2019-01-10T11:50:08.854Z,1012.26
2019-01-10T11:51:08.835Z,1012.27
2019-01-10T11:52:08.985Z,1012.22
2019-01-10T11:53:08.884Z,1012.24
2019-01-10T11:54:08.731Z,1012.22
2019-01-10T11:55:09.153Z,1012.17
2019-01-10T11:56:08.745Z,1012.14
2019-01-10T11:57:08.589Z,1012.14
2019-01-10T11:58:08.798Z,1012.09
2019-01-10T11:59:08.806Z,1012.09
2019-01-10T12:00:10.374Z,1012.11
2019-01-10T12:01:09.069Z,1012.13
2019-01-10T12:02:08.635Z,1012.11
2019-01-10T12:03:08.538Z,1012.16
2019-01-10T12:04:08.497Z,1012.14
2019-01-10T12:05:08.450Z,1012.12